Search for airport 
image banner adimage banner adimage banner ad
image banner ad

44CA - W R Byron

Located in Blythe, United States

ICAO - 44CA, IATA -

Data provided by Airmate  

General information

Coordinates: N33°59'23" W119°40'47"
Elevation is 420 feet MSL.
Magnetic variation is 12° East
View others Airports in California

Operational data

Special qualification required
Current time UTC:
Current local time:
Weather at : KOXR - Oxnard ( 49 km )
METAR: KOXR 240851Z AUTO 33005KT 10SM FEW012 16/13 A2999 RMK AO2 SLP155 T01560133 58002 $
TAF: KOXR 240559Z 2406/2506 29010KT P6SM SKC FM240900 31004KT P6SM BKN008 FM241600 26006KT P6SM BKN011 FM241900 27012KT P6SM FEW015 FM250300 28010KT P6SM SKC
View NOTAMs / SUP AIP / TFR affecting this airport [VIEW]
Communications frequencies: [VIEW]

Runways:

RWY identifierQFULength (ft)Width (ft)SurfaceLDA (ft)
09169760EARTH
27169760EARTH

Airport contact information

Address: Blythe United States

Satellite view of 44CA